logo
Search for airport 
image banner adimage banner adimage banner ad
image banner ad

BIRK - Reykjavik

Located in Reykjavik, Iceland

ICAO - BIRK, IATA - RKV

Data provided by Airmate  

General information

Coordinates: N64°7'48" W21°56'26"
Elevation is 45 feet MSL.
 
View others Airports in Capital Region

Operational data

Special qualification required
Current time UTC:
Current local time:
Weather
METAR: BIRK 220800Z 20010KT 9999 FEW010CB BKN022 06/04 Q1009 RESHRA
TAF: TAF BIRK 220758Z 2209/2309 21015KT 9999 -SHRA SCT020 BKN035 TX08/2215Z TN04/2306Z TEMPO 2209/2302 SHRA BKN012TCU BECMG 2300/2302 19005KT
View NOTAMs / SUP AIP / TFR affecting this airport [VIEW]
Communications frequencies: [VIEW]

Runways:

RWY identifierQFULength (ft)Width (ft)SurfaceLDA (ft)
01355°5141148ASPH
19175°5141148ASPH
13116°4035148ASPH
31296°4035148ASPH

Airport contact information

Address: Reykjavik Iceland

Satellite view of BIRK